createdAt,value
2023-05-13T00:00:45.294Z,9.418171
2023-05-13T00:01:45.276Z,9.418325
2023-05-13T00:02:45.368Z,9.418226
2023-05-13T00:03:45.359Z,9.418264
2023-05-13T00:04:45.255Z,9.418313
2023-05-13T00:05:45.276Z,9.418263
2023-05-13T00:06:45.262Z,9.418283
2023-05-13T00:07:45.237Z,9.418219
2023-05-13T00:08:45.285Z,9.418312
2023-05-13T00:09:45.232Z,9.418372
2023-05-13T00:10:45.236Z,9.418282
2023-05-13T00:11:45.223Z,9.418357
2023-05-13T00:12:45.202Z,9.418336
2023-05-13T00:13:45.213Z,9.418301
2023-05-13T00:14:45.196Z,9.418273
2023-05-13T00:15:45.209Z,9.418264
2023-05-13T00:16:45.205Z,9.418268
2023-05-13T00:17:45.191Z,9.418242
2023-05-13T00:18:45.237Z,9.418144
2023-05-13T00:19:45.164Z,9.418191
2023-05-13T00:20:45.179Z,9.418300
2023-05-13T00:21:45.153Z,9.418296
2023-05-13T00:22:45.172Z,9.418288
2023-05-13T00:23:45.136Z,9.418309
2023-05-13T00:24:45.150Z,9.418317
2023-05-13T00:25:46.128Z,9.418305
2023-05-13T00:26:45.119Z,9.418296
2023-05-13T00:27:45.142Z,9.418295
2023-05-13T00:28:45.175Z,9.418245
2023-05-13T00:29:45.099Z,9.418324
2023-05-13T00:30:45.098Z,9.418361
2023-05-13T00:31:45.128Z,9.418281
2023-05-13T00:32:45.144Z,9.418247
2023-05-13T00:33:45.079Z,9.418241
2023-05-13T00:34:45.077Z,9.418146
2023-05-13T00:35:45.081Z,9.418208
2023-05-13T00:36:45.055Z,9.418225
2023-05-13T00:37:45.085Z,9.418225
2023-05-13T00:38:45.050Z,9.418158
2023-05-13T00:39:45.047Z,9.418211
2023-05-13T00:40:45.043Z,9.418275
2023-05-13T00:41:45.038Z,9.418294
2023-05-13T00:42:45.032Z,9.418236
2023-05-13T00:43:45.037Z,9.418201
2023-05-13T00:44:45.012Z,9.418251
2023-05-13T00:45:45.037Z,9.418335
2023-05-13T00:46:45.018Z,9.418263
2023-05-13T00:47:45.059Z,9.418298
2023-05-13T00:48:44.990Z,9.418302
2023-05-13T00:49:44.983Z,9.418334
2023-05-13T00:50:44.972Z,9.418200
2023-05-13T00:51:44.965Z,9.418231
2023-05-13T00:52:44.981Z,9.418278
2023-05-13T00:53:44.956Z,9.418269
2023-05-13T00:54:44.945Z,9.418277
2023-05-13T00:55:44.948Z,9.418297
2023-05-13T00:56:44.939Z,9.418176
2023-05-13T00:57:44.932Z,9.418248
2023-05-13T00:58:44.914Z,9.418207
2023-05-13T00:59:44.940Z,9.418282
2023-05-13T01:00:44.938Z,9.418219
2023-05-13T01:01:44.952Z,9.418301
2023-05-13T01:02:44.956Z,9.418275
2023-05-13T01:03:44.927Z,9.418294
2023-05-13T01:04:44.939Z,9.418304
2023-05-13T01:05:44.874Z,9.418302
2023-05-13T01:06:44.860Z,9.418307
2023-05-13T01:07:44.875Z,9.418242
2023-05-13T01:08:44.857Z,9.418222
2023-05-13T01:09:44.870Z,9.418249
2023-05-13T01:10:44.847Z,9.418225
2023-05-13T01:11:44.834Z,9.418201
2023-05-13T01:12:44.818Z,9.418208
2023-05-13T01:13:44.815Z,9.418190
2023-05-13T01:14:44.822Z,9.418209
2023-05-13T01:15:44.823Z,9.418262
2023-05-13T01:16:44.811Z,9.418244
2023-05-13T01:17:44.861Z,9.418215
2023-05-13T01:18:44.827Z,9.418177
2023-05-13T01:19:44.803Z,9.418240
2023-05-13T01:20:44.783Z,9.418190
2023-05-13T01:21:44.759Z,9.418296
2023-05-13T01:22:44.755Z,9.418271
2023-05-13T01:23:44.750Z,9.418316
2023-05-13T01:24:44.754Z,9.418267
2023-05-13T01:25:44.730Z,9.418319
2023-05-13T01:26:44.750Z,9.418202
2023-05-13T01:27:44.728Z,9.418270
2023-05-13T01:28:44.720Z,9.418381
2023-05-13T01:29:44.712Z,9.418353
2023-05-13T01:30:44.720Z,9.418429
2023-05-13T01:31:44.858Z,9.418577
2023-05-13T01:32:44.707Z,9.418495
2023-05-13T01:33:44.686Z,9.418385
2023-05-13T01:34:44.693Z,9.418365
2023-05-13T01:35:44.677Z,9.418240
2023-05-13T01:36:44.666Z,9.418164
2023-05-13T01:37:44.664Z,9.418186
2023-05-13T01:38:44.658Z,9.418134
2023-05-13T01:39:44.665Z,9.417929
2023-05-13T01:40:44.648Z,9.417931
2023-05-13T01:41:45.654Z,9.417987
2023-05-13T01:42:44.707Z,9.418150
2023-05-13T01:43:44.635Z,9.418263
2023-05-13T01:44:44.610Z,9.418298
2023-05-13T01:45:44.624Z,9.418468
2023-05-13T01:46:44.670Z,9.418387
2023-05-13T01:47:44.634Z,9.418302
2023-05-13T01:48:44.593Z,9.418324
2023-05-13T01:49:44.586Z,9.418356
2023-05-13T01:50:44.600Z,9.418473
2023-05-13T01:51:44.573Z,9.418603
2023-05-13T01:52:44.577Z,9.418403
2023-05-13T01:53:44.597Z,9.418231
2023-05-13T01:54:44.557Z,9.418200
2023-05-13T01:55:44.554Z,9.418213
2023-05-13T01:56:44.568Z,9.418274
2023-05-13T01:57:44.561Z,9.418247
2023-05-13T01:58:44.525Z,9.418270
2023-05-13T01:59:44.520Z,9.418262
2023-05-13T02:00:44.515Z,9.418293
2023-05-13T02:01:44.534Z,9.418188
2023-05-13T02:02:44.690Z,9.418214
2023-05-13T02:03:44.547Z,9.418251
2023-05-13T02:04:44.497Z,9.418213
2023-05-13T02:05:44.481Z,9.418272
2023-05-13T02:06:44.481Z,9.418286
2023-05-13T02:07:44.482Z,9.418214
2023-05-13T02:08:44.465Z,9.418301
2023-05-13T02:09:44.469Z,9.418358
2023-05-13T02:10:44.456Z,9.418312
2023-05-13T02:11:44.445Z,9.418313
2023-05-13T02:12:44.443Z,9.418237
2023-05-13T02:13:44.438Z,9.418122
2023-05-13T02:14:44.461Z,9.418229
2023-05-13T02:15:44.432Z,9.418249
2023-05-13T02:16:44.432Z,9.418294
2023-05-13T02:17:44.428Z,9.418229
2023-05-13T02:18:44.476Z,9.418229
2023-05-13T02:19:44.405Z,9.418214
2023-05-13T02:20:44.407Z,9.418257
2023-05-13T02:21:44.397Z,9.418348
2023-05-13T02:22:44.386Z,9.418303
2023-05-13T02:23:44.368Z,9.418344
2023-05-13T02:24:44.375Z,9.418263
2023-05-13T02:25:44.400Z,9.418200
2023-05-13T02:26:44.385Z,9.418271
2023-05-13T02:27:44.349Z,9.418200
2023-05-13T02:28:44.365Z,9.418250
2023-05-13T02:29:44.338Z,9.418236
2023-05-13T02:30:44.338Z,9.418295
2023-05-13T02:31:44.365Z,9.418325
2023-05-13T02:32:44.462Z,9.418365
2023-05-13T02:33:44.321Z,9.418358
2023-05-13T02:34:44.324Z,9.418296
2023-05-13T02:35:44.311Z,9.418359
2023-05-13T02:36:44.314Z,9.418407
2023-05-13T02:37:44.306Z,9.418393
2023-05-13T02:38:44.403Z,9.418365
2023-05-13T02:39:44.278Z,9.418349
2023-05-13T02:40:44.293Z,9.418332
2023-05-13T02:41:44.279Z,9.418380
2023-05-13T02:42:44.279Z,9.418348
2023-05-13T02:43:44.253Z,9.418417
2023-05-13T02:44:44.246Z,9.418327
2023-05-13T02:45:44.253Z,9.418308
2023-05-13T02:46:44.282Z,9.418272
2023-05-13T02:47:44.265Z,9.418233
2023-05-13T02:48:44.221Z,9.418223
2023-05-13T02:49:44.212Z,9.418247
2023-05-13T02:50:44.206Z,9.418245
2023-05-13T02:51:44.224Z,9.418270
2023-05-13T02:52:44.245Z,9.418270
2023-05-13T02:53:44.191Z,9.418275
2023-05-13T02:54:44.225Z,9.418280
2023-05-13T02:55:44.189Z,9.418241
2023-05-13T02:56:44.170Z,9.418232
2023-05-13T02:57:44.171Z,9.418283
2023-05-13T02:58:44.198Z,9.418303
2023-05-13T02:59:44.147Z,9.418321
2023-05-13T03:00:44.191Z,9.418335
2023-05-13T03:01:44.186Z,9.418365
2023-05-13T03:02:44.240Z,9.418328
2023-05-13T03:03:44.151Z,9.418325
2023-05-13T03:04:44.114Z,9.418306
2023-05-13T03:05:44.115Z,9.418292
2023-05-13T03:06:44.114Z,9.418272
2023-05-13T03:07:44.120Z,9.418262
2023-05-13T03:08:44.087Z,9.418267
2023-05-13T03:09:44.097Z,9.418337
2023-05-13T03:10:44.077Z,9.418302
2023-05-13T03:11:44.089Z,9.418267
2023-05-13T03:12:44.077Z,9.418346
2023-05-13T03:13:44.078Z,9.418232
2023-05-13T03:14:44.052Z,9.418156
2023-05-13T03:15:44.702Z,9.418148
2023-05-13T03:16:45.059Z,9.418200
2023-05-13T03:17:44.063Z,9.418211
2023-05-13T03:18:44.052Z,9.418249
2023-05-13T03:19:44.025Z,9.418245
2023-05-13T03:20:44.021Z,9.418188
2023-05-13T03:21:44.090Z,9.418188
2023-05-13T03:22:44.016Z,9.418316
2023-05-13T03:23:44.018Z,9.418279
2023-05-13T03:24:43.989Z,9.418206
2023-05-13T03:25:43.987Z,9.418222
2023-05-13T03:26:43.978Z,9.418209
2023-05-13T03:27:43.964Z,9.418224
2023-05-13T03:28:43.990Z,9.418206
2023-05-13T03:29:43.966Z,9.418203
2023-05-13T03:30:43.953Z,9.418202
2023-05-13T03:31:44.003Z,9.418200
2023-05-13T03:32:44.056Z,9.418229
2023-05-13T03:33:43.928Z,9.418231
2023-05-13T03:34:43.983Z,9.418252
2023-05-13T03:35:43.911Z,9.418246
2023-05-13T03:36:43.902Z,9.418251
2023-05-13T03:37:43.899Z,9.418250
2023-05-13T03:38:43.899Z,9.418164
2023-05-13T03:39:43.887Z,9.418198
2023-05-13T03:40:43.903Z,9.418141
2023-05-13T03:41:43.885Z,9.418220
2023-05-13T03:42:43.871Z,9.418209
2023-05-13T03:43:43.871Z,9.418243
2023-05-13T03:44:43.870Z,9.418216
2023-05-13T03:45:43.863Z,9.418234
2023-05-13T03:46:43.869Z,9.418234
2023-05-13T03:47:43.932Z,9.418275
2023-05-13T03:48:43.830Z,9.418215
2023-05-13T03:49:43.829Z,9.418129
2023-05-13T03:50:43.832Z,9.418120
2023-05-13T03:51:43.831Z,9.418145
2023-05-13T03:52:45.508Z,9.418149
2023-05-13T03:53:43.803Z,9.418155
2023-05-13T03:54:43.797Z,9.418192
2023-05-13T03:55:43.788Z,9.418193
2023-05-13T03:56:43.785Z,9.418212
2023-05-13T03:57:43.797Z,9.418229
2023-05-13T03:58:43.786Z,9.418233
2023-05-13T03:59:43.794Z,9.418206
2023-05-13T04:00:43.771Z,9.418148
2023-05-13T04:01:43.834Z,9.418220
2023-05-13T04:02:44.016Z,9.418126
2023-05-13T04:03:43.756Z,9.418146
2023-05-13T04:04:43.766Z,9.418288
2023-05-13T04:05:43.739Z,9.418276
2023-05-13T04:06:43.750Z,9.418200
2023-05-13T04:07:43.745Z,9.418259
2023-05-13T04:08:43.718Z,9.418321
2023-05-13T04:09:43.706Z,9.418294
2023-05-13T04:10:43.737Z,9.418285
2023-05-13T04:11:43.977Z,9.418311
2023-05-13T04:12:43.696Z,9.418278
2023-05-13T04:13:43.748Z,9.418221
2023-05-13T04:14:43.687Z,9.418156
2023-05-13T04:15:43.677Z,9.418161
2023-05-13T04:16:43.809Z,9.418139
2023-05-13T04:17:43.699Z,9.418205
2023-05-13T04:18:43.669Z,9.418241
2023-05-13T04:19:43.657Z,9.418146
2023-05-13T04:20:43.657Z,9.418079
2023-05-13T04:21:43.640Z,9.418235
2023-05-13T04:22:43.663Z,9.418324
2023-05-13T04:23:43.644Z,9.418265
2023-05-13T04:24:43.631Z,9.418221
2023-05-13T04:25:43.615Z,9.418189
2023-05-13T04:26:43.604Z,9.418164
2023-05-13T04:27:43.612Z,9.418184
2023-05-13T04:28:43.606Z,9.418123
2023-05-13T04:29:43.627Z,9.418140
2023-05-13T04:30:43.587Z,9.418185
2023-05-13T04:31:43.580Z,9.418163
2023-05-13T04:32:43.617Z,9.418170
2023-05-13T04:33:43.556Z,9.418261
2023-05-13T04:34:43.556Z,9.418238
2023-05-13T04:35:43.558Z,9.418249
2023-05-13T04:36:43.541Z,9.418258
2023-05-13T04:37:43.547Z,9.418247
2023-05-13T04:38:43.571Z,9.418263
2023-05-13T04:39:43.522Z,9.418297
2023-05-13T04:40:43.534Z,9.418325
2023-05-13T04:41:43.569Z,9.418328
2023-05-13T04:42:43.507Z,9.418278
2023-05-13T04:43:43.518Z,9.418274
2023-05-13T04:44:43.499Z,9.418256
2023-05-13T04:45:43.532Z,9.418242
2023-05-13T04:46:43.603Z,9.418231
2023-05-13T04:47:43.515Z,9.418262
2023-05-13T04:48:43.505Z,9.418344
2023-05-13T04:49:43.487Z,9.418419
2023-05-13T04:50:43.484Z,9.418412
2023-05-13T04:51:43.516Z,9.418342
2023-05-13T04:52:43.449Z,9.418402
2023-05-13T04:53:43.477Z,9.418417
2023-05-13T04:54:43.436Z,9.418317
2023-05-13T04:55:44.606Z,9.418219
2023-05-13T04:56:45.324Z,9.418226
2023-05-13T04:57:43.432Z,9.418266
2023-05-13T04:58:43.412Z,9.418266
2023-05-13T04:59:43.549Z,9.418277
2023-05-13T05:00:43.413Z,9.418216
2023-05-13T05:01:43.406Z,9.418262
2023-05-13T05:02:43.407Z,9.418300
2023-05-13T05:03:43.420Z,9.418294
2023-05-13T05:04:43.402Z,9.418205
2023-05-13T05:05:43.376Z,9.418249
2023-05-13T05:06:43.369Z,9.418316
2023-05-13T05:07:43.348Z,9.418351
2023-05-13T05:08:43.369Z,9.418326
2023-05-13T05:09:43.354Z,9.418299
2023-05-13T05:10:43.429Z,9.418282
2023-05-13T05:11:43.355Z,9.418308
2023-05-13T05:12:43.883Z,9.418317
2023-05-13T05:13:43.323Z,9.418271
2023-05-13T05:14:43.332Z,9.418276
2023-05-13T05:15:43.307Z,9.418239
2023-05-13T05:16:43.306Z,9.418269
2023-05-13T05:17:44.388Z,9.418290
2023-05-13T05:18:43.758Z,9.418286
2023-05-13T05:19:43.308Z,9.418280
2023-05-13T05:20:43.269Z,9.418328
2023-05-13T05:21:43.268Z,9.418286
2023-05-13T05:22:43.267Z,9.418313
2023-05-13T05:23:43.271Z,9.418298
2023-05-13T05:24:43.263Z,9.418201
2023-05-13T05:25:43.272Z,9.418255
2023-05-13T05:26:43.236Z,9.418281
2023-05-13T05:27:43.252Z,9.418305
2023-05-13T05:28:43.263Z,9.418312
2023-05-13T05:29:43.219Z,9.418124
2023-05-13T05:30:43.246Z,9.418299
2023-05-13T05:31:43.238Z,9.418348
2023-05-13T05:32:43.281Z,9.418309
2023-05-13T05:33:43.223Z,9.418307
2023-05-13T05:34:43.202Z,9.418249
2023-05-13T05:35:43.173Z,9.418279
2023-05-13T05:36:43.191Z,9.418314
2023-05-13T05:37:43.163Z,9.418388
2023-05-13T05:38:43.219Z,9.418318
2023-05-13T05:39:43.152Z,9.418236
2023-05-13T05:40:43.133Z,9.418308
2023-05-13T05:41:43.169Z,9.418319
2023-05-13T05:42:43.138Z,9.418336
2023-05-13T05:43:43.129Z,9.418290
2023-05-13T05:44:43.121Z,9.418281
2023-05-13T05:45:43.107Z,9.418316
2023-05-13T05:46:43.133Z,9.418319
2023-05-13T05:47:43.102Z,9.418299
2023-05-13T05:48:43.074Z,9.418332
2023-05-13T05:49:43.077Z,9.418326
2023-05-13T05:50:43.087Z,9.418309
2023-05-13T05:51:43.099Z,9.418319
2023-05-13T05:52:43.049Z,9.418289
2023-05-13T05:53:43.045Z,9.418285
2023-05-13T05:54:43.041Z,9.418320
2023-05-13T05:55:43.037Z,9.418296
2023-05-13T05:56:43.064Z,9.418290
2023-05-13T05:57:43.023Z,9.418304
2023-05-13T05:58:43.010Z,9.418253
2023-05-13T05:59:43.004Z,9.418306
2023-05-13T06:00:42.999Z,9.418328
2023-05-13T06:01:43.021Z,9.418295
2023-05-13T06:02:43.105Z,9.418330
2023-05-13T06:03:43.083Z,9.418333
2023-05-13T06:04:43.072Z,9.418319
2023-05-13T06:05:42.985Z,9.418268
2023-05-13T06:06:43.011Z,9.418271
2023-05-13T06:07:43.027Z,9.418335
2023-05-13T06:08:42.962Z,9.418292
2023-05-13T06:09:42.974Z,9.418338
2023-05-13T06:10:42.960Z,9.418374
2023-05-13T06:11:42.929Z,9.418544
2023-05-13T06:12:42.941Z,9.418433
2023-05-13T06:13:42.927Z,9.418415
2023-05-13T06:14:42.885Z,9.418431
2023-05-13T06:15:42.938Z,9.418377
2023-05-13T06:16:42.908Z,9.418317
2023-05-13T06:17:42.902Z,9.418348
2023-05-13T06:18:42.897Z,9.418324
2023-05-13T06:19:42.855Z,9.418244
2023-05-13T06:20:42.884Z,9.418219
2023-05-13T06:21:42.858Z,9.418263
2023-05-13T06:22:42.840Z,9.418206
2023-05-13T06:23:42.891Z,9.418316
2023-05-13T06:24:42.820Z,9.418382
2023-05-13T06:25:42.832Z,9.418422
2023-05-13T06:26:42.801Z,9.418378
2023-05-13T06:27:42.805Z,9.418302
2023-05-13T06:28:42.803Z,9.418241
2023-05-13T06:29:42.807Z,9.418246
2023-05-13T06:30:42.785Z,9.418242
2023-05-13T06:31:43.837Z,9.418250
2023-05-13T06:32:53.470Z,9.418249
2023-05-13T06:33:44.757Z,9.418289
2023-05-13T06:34:42.765Z,9.418273
2023-05-13T06:35:42.760Z,9.418322
2023-05-13T06:36:42.733Z,9.418354
2023-05-13T06:37:42.739Z,9.418348
2023-05-13T06:38:42.725Z,9.418342
2023-05-13T06:39:42.765Z,9.418311
2023-05-13T06:40:42.736Z,9.418238
2023-05-13T06:41:42.707Z,9.418292
2023-05-13T06:42:42.692Z,9.418263
2023-05-13T06:43:42.681Z,9.418353
2023-05-13T06:44:42.691Z,9.418314
2023-05-13T06:45:42.751Z,9.418290
2023-05-13T06:46:42.688Z,9.418258
2023-05-13T06:47:42.711Z,9.418289
2023-05-13T06:48:42.670Z,9.418308
2023-05-13T06:49:42.663Z,9.418286
2023-05-13T06:50:42.688Z,9.418247
2023-05-13T06:51:42.658Z,9.418219
2023-05-13T06:52:42.638Z,9.418290
2023-05-13T06:53:42.626Z,9.418255
2023-05-13T06:54:42.642Z,9.418400
2023-05-13T06:55:42.622Z,9.418283
2023-05-13T06:56:42.643Z,9.418245
2023-05-13T06:57:43.625Z,9.418300
2023-05-13T06:58:43.689Z,9.418407
2023-05-13T06:59:42.594Z,9.418361
2023-05-13T07:00:42.621Z,9.418372
2023-05-13T07:01:42.581Z,9.418423
2023-05-13T07:02:42.624Z,9.418373
2023-05-13T07:03:42.629Z,9.418332
2023-05-13T07:04:42.552Z,9.418389
2023-05-13T07:05:42.538Z,9.418150
2023-05-13T07:06:42.540Z,9.418274
2023-05-13T07:07:42.580Z,9.418543
2023-05-13T07:08:42.552Z,9.418354
2023-05-13T07:09:42.513Z,9.418380
2023-05-13T07:10:42.510Z,9.418339
2023-05-13T07:11:42.498Z,9.418408
2023-05-13T07:12:42.525Z,9.418411
2023-05-13T07:13:42.478Z,9.418344
2023-05-13T07:14:42.501Z,9.418440
2023-05-13T07:15:42.483Z,9.418340
2023-05-13T07:16:42.500Z,9.418257
2023-05-13T07:17:42.704Z,9.418391
2023-05-13T07:18:42.487Z,9.418360
2023-05-13T07:19:42.464Z,9.418462
2023-05-13T07:20:42.436Z,9.418371
2023-05-13T07:21:42.438Z,9.418374
2023-05-13T07:22:42.432Z,9.418411
2023-05-13T07:23:44.287Z,9.418349
2023-05-13T07:24:43.410Z,9.418240
2023-05-13T07:25:42.418Z,9.418378
2023-05-13T07:26:42.391Z,9.418453
2023-05-13T07:27:42.389Z,9.418386
2023-05-13T07:28:42.397Z,9.418213
2023-05-13T07:29:42.433Z,9.418287
2023-05-13T07:30:42.451Z,9.418288
2023-05-13T07:31:42.374Z,9.418352
2023-05-13T07:32:42.403Z,9.418330
2023-05-13T07:33:42.367Z,9.418242
2023-05-13T07:34:42.340Z,9.418345
2023-05-13T07:35:42.345Z,9.418324
2023-05-13T07:36:42.352Z,9.418324
2023-05-13T07:37:42.332Z,9.418275
2023-05-13T07:38:42.349Z,9.418307
2023-05-13T07:39:42.311Z,9.418332
2023-05-13T07:40:42.306Z,9.418366
2023-05-13T07:41:42.330Z,9.418311
2023-05-13T07:42:42.301Z,9.418237
2023-05-13T07:43:42.302Z,9.418285
2023-05-13T07:44:42.307Z,9.418400
2023-05-13T07:45:42.298Z,9.418314
2023-05-13T07:46:42.301Z,9.418332
2023-05-13T07:47:44.382Z,9.418320
2023-05-13T07:48:43.271Z,9.418366
2023-05-13T07:49:42.297Z,9.418380
2023-05-13T07:50:42.238Z,9.418210
2023-05-13T07:51:42.241Z,9.418198
2023-05-13T07:52:42.236Z,9.418306
2023-05-13T07:53:42.265Z,9.418368
2023-05-13T07:54:42.233Z,9.418375
2023-05-13T07:55:42.242Z,9.418386
2023-05-13T07:56:42.206Z,9.418365
2023-05-13T07:57:42.202Z,9.418283
2023-05-13T07:58:42.217Z,9.418168
2023-05-13T07:59:44.545Z,9.418479
2023-05-13T08:00:43.188Z,9.418302
2023-05-13T08:01:42.175Z,9.417665
2023-05-13T08:02:42.292Z,9.417015
2023-05-13T08:03:42.276Z,9.417653
2023-05-13T08:04:42.238Z,9.417653
2023-05-13T08:05:42.152Z,9.417450
2023-05-13T08:06:42.156Z,9.417649
2023-05-13T08:07:42.146Z,9.418178
2023-05-13T08:08:42.171Z,9.417495
2023-05-13T08:09:42.148Z,9.417662
2023-05-13T08:10:42.119Z,9.418177
2023-05-13T08:11:42.147Z,9.418247
2023-05-13T08:12:42.117Z,9.418045
2023-05-13T08:13:42.116Z,9.418316
2023-05-13T08:14:42.114Z,9.418521
2023-05-13T08:15:42.112Z,9.418395
2023-05-13T08:16:42.109Z,9.418381
2023-05-13T08:17:42.152Z,9.418354
2023-05-13T08:18:42.106Z,9.418191
2023-05-13T08:19:42.063Z,9.418298
2023-05-13T08:20:42.075Z,9.418348
2023-05-13T08:21:42.054Z,9.418309
2023-05-13T08:22:42.041Z,9.418371
2023-05-13T08:23:45.837Z,9.418423
2023-05-13T08:24:43.041Z,9.418392
2023-05-13T08:25:42.053Z,9.418358
2023-05-13T08:26:42.026Z,9.418357
2023-05-13T08:27:42.013Z,9.418357
2023-05-13T08:28:42.679Z,9.418341
2023-05-13T08:29:42.059Z,9.418413
2023-05-13T08:30:41.991Z,9.418356
2023-05-13T08:31:42.064Z,9.418295
2023-05-13T08:32:42.032Z,9.418367
2023-05-13T08:33:43.006Z,9.418436
2023-05-13T08:34:41.972Z,9.418385
2023-05-13T08:35:44.213Z,9.418380
2023-05-13T08:36:41.958Z,9.418366
2023-05-13T08:37:42.018Z,9.418364
2023-05-13T08:38:41.953Z,9.418322
2023-05-13T08:39:41.947Z,9.418372
2023-05-13T08:40:41.921Z,9.418316
2023-05-13T08:41:41.927Z,9.418301
2023-05-13T08:42:41.937Z,9.418395
2023-05-13T08:43:41.904Z,9.418410
2023-05-13T08:44:41.912Z,9.418477
2023-05-13T08:45:41.944Z,9.418417
2023-05-13T08:46:41.891Z,9.418380
2023-05-13T08:47:42.031Z,9.418425
2023-05-13T08:48:41.891Z,9.418399
2023-05-13T08:49:41.896Z,9.418322
2023-05-13T08:50:41.875Z,9.418386
2023-05-13T08:51:41.867Z,9.418351
2023-05-13T08:52:41.899Z,9.418303
2023-05-13T08:53:41.867Z,9.418322
2023-05-13T08:54:41.856Z,9.418328
2023-05-13T08:55:41.856Z,9.418318
2023-05-13T08:56:41.832Z,9.418287
2023-05-13T08:57:41.820Z,9.418295
2023-05-13T08:58:41.828Z,9.418369
2023-05-13T08:59:41.835Z,9.418509
2023-05-13T09:00:41.843Z,9.418509
2023-05-13T09:01:41.847Z,9.418607
2023-05-13T09:02:41.866Z,9.418482
2023-05-13T09:03:41.808Z,9.418292
2023-05-13T09:04:41.843Z,9.418286
2023-05-13T09:05:41.823Z,9.418249
2023-05-13T09:06:41.796Z,9.418351
2023-05-13T09:07:41.811Z,9.418405
2023-05-13T09:08:41.781Z,9.418451
2023-05-13T09:09:41.768Z,9.418406
2023-05-13T09:10:41.796Z,9.418365
2023-05-13T09:11:43.964Z,9.418466
2023-05-13T09:12:41.750Z,9.418280
2023-05-13T09:13:41.737Z,9.418415
2023-05-13T09:14:41.725Z,9.418360
2023-05-13T09:15:41.760Z,9.418330
2023-05-13T09:16:41.741Z,9.418140
2023-05-13T09:17:41.740Z,9.418433
2023-05-13T09:18:41.830Z,9.418329
2023-05-13T09:19:41.788Z,9.418470
2023-05-13T09:20:41.698Z,9.418457
2023-05-13T09:21:41.688Z,9.418509
2023-05-13T09:22:41.687Z,9.418440
2023-05-13T09:23:41.671Z,9.418393
2023-05-13T09:24:41.670Z,9.418383
2023-05-13T09:25:41.658Z,9.418366
2023-05-13T09:26:41.654Z,9.418298
2023-05-13T09:27:41.694Z,9.418261
2023-05-13T09:28:41.662Z,9.418283
2023-05-13T09:29:41.635Z,9.418261
2023-05-13T09:30:43.770Z,9.418224
2023-05-13T09:31:41.744Z,9.418297
2023-05-13T09:32:41.650Z,9.418367
2023-05-13T09:33:41.625Z,9.418412
2023-05-13T09:34:41.617Z,9.418368
2023-05-13T09:35:41.633Z,9.418388
2023-05-13T09:36:41.616Z,9.418352
2023-05-13T09:37:41.607Z,9.418328
2023-05-13T09:38:41.605Z,9.418324
2023-05-13T09:39:41.951Z,9.418275
2023-05-13T09:40:41.569Z,9.418282
2023-05-13T09:41:41.565Z,9.418303
2023-05-13T09:42:41.600Z,9.418324
2023-05-13T09:43:41.547Z,9.418311
2023-05-13T09:44:41.553Z,9.418218
2023-05-13T09:45:41.549Z,9.418330
2023-05-13T09:46:41.562Z,9.418356
2023-05-13T09:47:41.575Z,9.418380
2023-05-13T09:48:41.523Z,9.418332
2023-05-13T09:49:41.518Z,9.418311
2023-05-13T09:50:41.527Z,9.418303
2023-05-13T09:51:41.517Z,9.418262
2023-05-13T09:52:41.511Z,9.418324
2023-05-13T09:53:41.506Z,9.418309
2023-05-13T09:54:41.820Z,9.418240
2023-05-13T09:55:41.489Z,9.418249
2023-05-13T09:56:41.479Z,9.418247
2023-05-13T09:57:41.526Z,9.418161
2023-05-13T09:58:41.491Z,9.418210
2023-05-13T09:59:41.449Z,9.418228
2023-05-13T10:00:41.650Z,9.418223
2023-05-13T10:01:41.678Z,9.418214
2023-05-13T10:02:41.481Z,9.418232
2023-05-13T10:03:41.538Z,9.418223
2023-05-13T10:04:41.480Z,9.418230
2023-05-13T10:05:41.454Z,9.418369
2023-05-13T10:06:41.431Z,9.418408
2023-05-13T10:07:41.407Z,9.418357
2023-05-13T10:08:41.448Z,9.418302
2023-05-13T10:09:41.415Z,9.418236
2023-05-13T10:10:41.392Z,9.418282
2023-05-13T10:11:41.384Z,9.418262
2023-05-13T10:12:41.406Z,9.418296
2023-05-13T10:13:41.364Z,9.418237
2023-05-13T10:14:41.379Z,9.418272
2023-05-13T10:15:41.357Z,9.418341
2023-05-13T10:16:41.395Z,9.418321
2023-05-13T10:17:41.378Z,9.418369
2023-05-13T10:18:41.373Z,9.418276
2023-05-13T10:19:41.332Z,9.418333
2023-05-13T10:20:41.327Z,9.418382
2023-05-13T10:21:41.314Z,9.418283
2023-05-13T10:22:41.306Z,9.418237
2023-05-13T10:23:41.289Z,9.418327
2023-05-13T10:24:41.308Z,9.418267
2023-05-13T10:25:41.298Z,9.418279
2023-05-13T10:26:41.277Z,9.418375
2023-05-13T10:27:41.296Z,9.418437
2023-05-13T10:28:41.256Z,9.418323
2023-05-13T10:29:41.259Z,9.418343
2023-05-13T10:30:41.263Z,9.418324
2023-05-13T10:31:41.257Z,9.418325
2023-05-13T10:32:41.778Z,9.418313
2023-05-13T10:33:41.233Z,9.418349
2023-05-13T10:34:41.296Z,9.418375
2023-05-13T10:35:42.755Z,9.418332
2023-05-13T10:36:42.200Z,9.418301
2023-05-13T10:37:41.195Z,9.418281
2023-05-13T10:38:41.263Z,9.418318
2023-05-13T10:39:41.205Z,9.418353
2023-05-13T10:40:41.166Z,9.418298
2023-05-13T10:41:41.166Z,9.418344
2023-05-13T10:42:41.183Z,9.418301
2023-05-13T10:43:41.157Z,9.418295
2023-05-13T10:44:41.165Z,9.418381
2023-05-13T10:45:41.151Z,9.418427
2023-05-13T10:46:41.147Z,9.418382
2023-05-13T10:47:41.175Z,9.418409
2023-05-13T10:48:41.180Z,9.418395
2023-05-13T10:49:41.129Z,9.418394
2023-05-13T10:50:41.123Z,9.418352
2023-05-13T10:51:41.113Z,9.418328
2023-05-13T10:52:41.096Z,9.418329
2023-05-13T10:53:41.091Z,9.418346
2023-05-13T10:54:41.103Z,9.418335
2023-05-13T10:55:41.441Z,9.418309
2023-05-13T10:56:41.061Z,9.418312
2023-05-13T10:57:41.075Z,9.418234
2023-05-13T10:58:41.059Z,9.418276
2023-05-13T10:59:41.052Z,9.418303
2023-05-13T11:00:41.061Z,9.418318
2023-05-13T11:01:41.079Z,9.418319
2023-05-13T11:02:41.083Z,9.418278
2023-05-13T11:03:41.224Z,9.418349
2023-05-13T11:04:41.022Z,9.418379
2023-05-13T11:05:41.022Z,9.418393
2023-05-13T11:06:41.031Z,9.418413
2023-05-13T11:07:41.027Z,9.418353
2023-05-13T11:08:41.003Z,9.418348
2023-05-13T11:09:40.992Z,9.418292
2023-05-13T11:10:41.009Z,9.418335
2023-05-13T11:11:40.985Z,9.418391
2023-05-13T11:12:40.956Z,9.418361
2023-05-13T11:13:40.973Z,9.418308
2023-05-13T11:14:40.955Z,9.418341
2023-05-13T11:15:40.939Z,9.418326
2023-05-13T11:16:40.984Z,9.418323
2023-05-13T11:17:40.954Z,9.418380
2023-05-13T11:18:40.991Z,9.418317
2023-05-13T11:19:40.914Z,9.418350
2023-05-13T11:20:51.697Z,9.418312
2023-05-13T11:21:42.908Z,9.418289
2023-05-13T11:22:40.902Z,9.418325
2023-05-13T11:23:40.903Z,9.418319
2023-05-13T11:24:40.892Z,9.418312
2023-05-13T11:25:40.880Z,9.418360
2023-05-13T11:26:40.871Z,9.418377
2023-05-13T11:27:41.876Z,9.418307
2023-05-13T11:28:40.871Z,9.418308
2023-05-13T11:29:40.856Z,9.418248
2023-05-13T11:30:40.869Z,9.418284
2023-05-13T11:31:40.879Z,9.418342
2023-05-13T11:32:40.879Z,9.418303
2023-05-13T11:33:40.820Z,9.418294
2023-05-13T11:34:40.815Z,9.418276
2023-05-13T11:35:40.802Z,9.418297
2023-05-13T11:36:40.800Z,9.418281
2023-05-13T11:37:40.826Z,9.418269
2023-05-13T11:38:41.785Z,9.418308
2023-05-13T11:39:40.819Z,9.418289
2023-05-13T11:40:40.765Z,9.418329
2023-05-13T11:41:40.767Z,9.418326
2023-05-13T11:42:40.764Z,9.418274
2023-05-13T11:43:40.761Z,9.418280
2023-05-13T11:44:40.734Z,9.418323